Terminal Aerodrome Forecast
Issued by NWS

Home | Current Version | Previous Version | Text Only | Print | Product List | Glossary On
Versions: 1 2 3 4 5 6 7 8 9 10 11 12
000
FTUS45 KVEF 310500
TAFBIH
TAF
KBIH 310529Z 3106/0106 16012G20KT P6SM SCT200
     FM310900 16011KT P6SM FEW200
     FM311900 17020G30KT P6SM SCT150 SCT200
     FM010200 16014G22KT P6SM SCT150 SCT200=

USA.gov is the U.S. government's official web portal to all federal, state and local government web resources and services.